首页
METAR-TAF:

METAR-TAF

机场 :

Attawapiskat, 安大略省, 加拿大

纬度: 52-55-39N, 经度: 082-25-55W, 海拔: 9米

当前天气观测

该预报发布于10分钟前的10:58 UTC
风速7节,风向
温度 16°C
湿度 100%
气压 1005 hPa
能見度: 14.5公里
少量云层高于600英尺
散云层高于2000英尺
阴天层高于2900英尺
小雨

METAR: CYAT 191058Z AUTO 35007KT 9SM -RA FEW006 SCT020 OVC029 16/16 A2968 RMK SLP053 DENSITY ALT 500FT

时间: 07:08 (11:08 UTC)

预报

该预报发布于2小时和26分钟前的08:42 UTC
预报有效从19日的 09点(UTC)到 19日的 19点(UTC)
风速3节,风向多变
能見度: 10公里
阴天层高于3000英尺
短暂存在
从 19日的 09点(UTC)到 19日的 14点(UTC)
能見度: 6.4公里
多云层高于700英尺
阴天层高于1500英尺
小阵雨, 轻雾
几率 30%
从 19日的 09点(UTC)到 19日的 11点(UTC)
风速15节,风向多变,有时为25节阵风
能見度: 3.2公里
多云层高于500英尺
阴天层高于4000英尺, 积雨云.
雷暴, 雨, 轻雾
从 19日的 1500点(UTC)
风速10节,风向东北
能見度: 9.7公里
阴天层高于1000英尺
小毛毛雨, 轻雾
短暂存在
从 19日的 15点(UTC)到 19日的 19点(UTC)
能見度: 3.2公里
阴天层高于500英尺
小毛毛雨, 轻雾

TAF: CYAT 190842Z 1909/1919 VRB03KT P6SM OVC030 TEMPO 1909/1914 4SM -SHRA BR BKN007 OVC015 PROB30 1909/1911 VRB15G25KT 2SM TSRA BR BKN005 OVC040CB FM191500 04010KT 6SM -DZ BR OVC010 TEMPO 1915/1919 2SM -DZ BR OVC005 RMK FCST BASED ON AUTO OBS. NXT FCST BY 191500Z

超过4000个机场的气象观测和天气预报(METAR&TAF报告)。

可查询的气象台以黄色和红色小点在地图上表示。

将鼠标移到小点上方,可查看气象台名称。

然后点击查看天气观测和预报。

如需切换地图:点击带黑十字的绿色按钮放大地图;点击带横线的绿色按钮缩小地图;或者点击绿色箭头查看邻近地区的地图。


METAR-TAF: